In Rescue
 
Open Full Screen Window  High Contrast Mode
Wind Gusting 00 knots
03
July 25, 2021 8:40 AM CDT
Weather Information
Wind Direction
  270 °
Wind Speed
  03 kt (3 mph)
Wind Gust
  00 kt (0 mph)
Altimeter
30.01 in
Visibility
10 SM
Temperature
23° C
73° F
Dewpoint
13° C
55° F
Humidity
53%
1hr Rain Fall
00.00 in.
24hr Rain Fall
00.00 in.
Sky Condition
Clear
VFR

METAR KLVN 251340Z AUTO 27003KT 10SM CLR 23/13 A3001 RMK AO2

FAA Disclaimer: The data displayed is for advisory purposes only and is not to be used for flight planning or operations.